Time;durP1;ratioP1;P1;durP2;ratioP2;P2;SDS_P1;SDS_P2;PMS_P1;PMS_P2;Temp;Humidity;BMP_temperature;BMP_pressure;BME280_temperature;BME280_humidity;BME280_pressure;Samples;Min_cycle;Max_cycle;Signal;HPM_P1;HPM_P2
2022/11/26 00:01:17;;;;;;;828.60;385.90;;;6.10;99.90;;;;;;6185455;23;20350;-84
2022/11/26 00:03:44;;;;;;;821.10;391.20;;;5.60;99.90;;;;;;6185669;23;20024;-84
2022/11/26 00:06:37;;;;;;;861.10;397.63;;;5.60;99.90;;;;;;6185399;23;20322;-85
2022/11/26 00:09:07;;;;;;;856.23;400.87;;;5.60;99.90;;;;;;6185373;23;20381;-84
2022/11/26 00:11:33;;;;;;;850.17;400.13;;;6.40;99.90;;;;;;6158748;23;20452;-84
2022/11/26 00:13:58;;;;;;;816.67;383.00;;;5.60;99.90;;;;;;6159510;23;20024;-84
2022/11/26 00:16:26;;;;;;;898.23;413.03;;;5.60;99.90;;;;;;6186728;23;20013;-84
2022/11/26 00:18:52;;;;;;;789.43;371.70;;;5.60;99.90;;;;;;6161236;23;20013;-84
2022/11/26 00:21:24;;;;;;;767.45;384.20;;;5.80;99.90;;;;;;6187292;23;20056;-86
2022/11/26 00:23:51;;;;;;;928.63;398.73;;;5.60;99.90;;;;;;6161119;23;20020;-85
2022/11/26 00:26:19;;;;;;;921.90;412.80;;;5.60;99.90;;;;;;6187598;23;20024;-85
2022/11/26 00:28:55;;;;;;;884.83;405.10;;;5.50;99.90;;;;;;6187043;23;20013;-84
2022/11/26 00:31:21;;;;;;;;;;;5.60;99.90;;;;;;6187893;23;20056;-84
2022/11/26 00:33:47;;;;;;;857.33;392.33;;;5.60;99.90;;;;;;6187392;23;19975;-85
2022/11/26 00:36:18;;;;;;;892.13;406.43;;;5.90;99.90;;;;;;6187541;23;20017;-85
2022/11/26 00:38:46;;;;;;;924.07;408.87;;;6.20;99.90;;;;;;6161036;23;20053;-84
2022/11/26 00:41:21;;;;;;;857.40;402.70;;;6.20;99.90;;;;;;6187082;23;20020;-85
2022/11/26 00:43:47;;;;;;;911.63;401.23;;;5.50;99.90;;;;;;6187497;23;20017;-84
2022/11/26 00:46:14;;;;;;;823.97;387.17;;;5.50;99.90;;;;;;6186936;23;20074;-84
2022/11/26 00:48:40;;;;;;;886.57;394.10;;;5.50;99.90;;;;;;6186474;23;20018;-84
2022/11/26 00:51:16;;;;;;;970.43;438.77;;;5.40;99.90;;;;;;6186917;23;20013;-84
2022/11/26 00:53:43;;;;;;;920.20;412.33;;;5.50;99.90;;;;;;6161071;23;20024;-84
2022/11/26 00:56:17;;;;;;;1087.30;435.50;;;5.80;99.90;;;;;;6187075;23;20013;-85
2022/11/26 00:58:43;;;;;;;1022.23;453.87;;;5.40;99.90;;;;;;6186621;23;20013;-84
2022/11/26 01:01:16;;;;;;;1034.73;450.50;;;5.40;99.90;;;;;;6187132;23;20088;-84
2022/11/26 01:03:42;;;;;;;1130.77;458.73;;;6.10;99.90;;;;;;6186773;23;20478;-85
2022/11/26 01:06:21;;;;;;;1066.27;438.27;;;5.70;99.90;;;;;;6186836;23;20017;-84
2022/11/26 01:08:47;;;;;;;980.50;435.93;;;5.40;99.90;;;;;;6186689;23;20021;-84
2022/11/26 01:11:16;;;;;;;1048.83;425.60;;;5.40;99.90;;;;;;6186425;23;20024;-84
2022/11/26 01:13:44;;;;;;;1063.87;435.47;;;6.00;99.90;;;;;;6187186;23;20013;-84
2022/11/26 01:16:23;;;;;;;988.33;411.53;;;5.90;99.90;;;;;;6186408;23;20021;-84
2022/11/26 01:18:52;;;;;;;991.10;421.00;;;5.40;99.90;;;;;;6186482;23;20017;-84
2022/11/26 01:21:18;;;;;;;1060.57;427.47;;;5.80;99.90;;;;;;6186946;23;20025;-84
2022/11/26 01:23:44;;;;;;;1094.63;433.27;;;5.30;99.90;;;;;;6186439;23;20024;-84
2022/11/26 01:26:20;;;;;;;1092.43;452.40;;;5.30;99.90;;;;;;6186475;23;20048;-84
2022/11/26 01:28:46;;;;;;;1006.55;418.77;;;5.70;99.90;;;;;;6187008;23;20024;-84
2022/11/26 01:31:15;;;;;;;1124.23;471.00;;;5.30;99.90;;;;;;6186199;23;20021;-84
2022/11/26 01:33:40;;;;;;;1126.80;432.47;;;5.30;99.90;;;;;;6186757;23;20095;-84
2022/11/26 01:36:34;;;;;;;1094.33;432.03;;;5.90;99.90;;;;;;6160225;23;20053;-84
2022/11/26 01:39:12;;;;;;;1150.10;481.77;;;5.20;99.90;;;;;;6181343;23;20023;-84
2022/11/26 01:42:05;;;;;;;1127.37;480.93;;;5.20;99.90;;;;;;6186673;23;20088;-84
2022/11/26 01:44:33;;;;;;;1136.10;439.10;;;5.20;99.90;;;;;;6186454;23;20020;-84
2022/11/26 01:47:00;;;;;;;1147.00;445.17;;;5.20;99.90;;;;;;6160107;23;20017;-84
2022/11/26 01:49:31;;;;;;;1161.27;445.10;;;5.50;99.90;;;;;;6186799;23;20314;-85
2022/11/26 01:52:21;;;;;;;1091.27;464.53;;;5.20;99.90;;;;;;6186456;23;20025;-84
2022/11/26 01:54:48;;;;;;;986.77;424.00;;;5.20;99.90;;;;;;6160205;23;20044;-83
2022/11/26 01:57:24;;;;;;;926.60;409.90;;;5.20;99.90;;;;;;6186592;23;20021;-84
2022/11/26 01:59:53;;;;;;;899.97;403.15;;;5.20;99.90;;;;;;6159608;23;20096;-85
2022/11/26 02:02:23;;;;;;;1046.13;417.27;;;5.20;99.90;;;;;;6186357;23;20017;-84
2022/11/26 02:05:16;;;;;;;1079.80;451.90;;;5.20;99.90;;;;;;6186132;23;20440;-83
2022/11/26 02:07:43;;;;;;;987.50;434.10;;;5.20;99.90;;;;;;6186318;23;20028;-84
2022/11/26 02:10:09;;;;;;;1169.50;440.47;;;5.20;99.90;;;;;;6186298;23;20017;-84
2022/11/26 02:12:36;;;;;;;1160.13;437.23;;;5.20;99.90;;;;;;6160006;23;20325;-84
2022/11/26 02:15:02;;;;;;;1080.47;447.57;;;5.20;99.90;;;;;;6186334;23;20148;-84
2022/11/26 02:17:42;;;;;;;1163.30;444.67;;;5.20;99.90;;;;;;6186080;23;20017;-84
2022/11/26 02:20:32;;;;;;;1032.13;406.43;;;5.20;99.90;;;;;;6186081;23;20053;-84
2022/11/26 02:23:14;;;;;;;986.53;420.13;;;5.20;99.90;;;;;;6186186;23;20431;-84
2022/11/26 02:26:01;;;;;;;1061.97;421.40;;;5.20;99.90;;;;;;6186398;23;20016;-84
2022/11/26 02:28:45;;;;;;;999.30;426.77;;;5.20;99.90;;;;;;6186561;23;20025;-84
2022/11/26 02:31:18;;;;;;;1062.07;416.33;;;5.20;99.90;;;;;;6186381;23;20126;-83
2022/11/26 02:34:04;;;;;;;1020.40;435.77;;;5.20;99.90;;;;;;6186322;23;20017;-84
2022/11/26 02:36:43;;;;;;;1026.57;436.02;;;5.20;99.90;;;;;;6185612;23;20021;-84
2022/11/26 02:39:15;;;;;;;1076.70;415.20;;;5.20;99.90;;;;;;6159906;23;20017;-84
2022/11/26 02:41:50;;;;;;;1080.13;416.53;;;5.90;99.90;;;;;;6160035;23;20063;-84
2022/11/26 02:44:20;;;;;;;1084.50;419.10;;;5.20;99.90;;;;;;6185913;23;20043;-83
2022/11/26 02:46:49;;;;;;;1111.20;424.77;;;5.20;99.90;;;;;;6159651;23;20021;-84
2022/11/26 02:49:19;;;;;;;1057.20;441.87;;;5.20;99.90;;;;;;6186247;23;20017;-84
2022/11/26 02:51:52;;;;;;;1014.30;419.33;;;5.40;99.90;;;;;;6159279;23;20075;-84
2022/11/26 02:54:20;;;;;;;1078.97;434.47;;;5.20;99.90;;;;;;6185680;23;20048;-84
2022/11/26 02:56:47;;;;;;;971.50;423.37;;;5.20;99.90;;;;;;6186332;23;20068;-84
2022/11/26 02:59:13;;;;;;;1029.70;417.97;;;5.20;99.90;;;;;;6159289;23;20025;-84
2022/11/26 03:01:46;;;;;;;1051.10;444.33;;;5.20;99.90;;;;;;6186199;23;20025;-84
2022/11/26 03:04:18;;;;;;;1086.17;459.40;;;5.10;99.90;;;;;;6185565;23;20013;-84
2022/11/26 03:06:45;;;;;;;1114.77;472.20;;;5.20;99.90;;;;;;6159190;23;20017;-84
2022/11/26 03:09:11;;;;;;;1099.00;460.40;;;5.10;99.90;;;;;;6186056;23;20009;-84
2022/11/26 03:11:36;;;;;;;1098.30;462.87;;;5.10;99.90;;;;;;6185445;23;20021;-84
2022/11/26 03:14:02;;;;;;;1139.70;429.20;;;5.00;99.90;;;;;;6185787;23;20017;-84
2022/11/26 03:16:29;;;;;;;948.07;412.43;;;5.00;99.90;;;;;;6185386;23;20013;-84
2022/11/26 03:18:54;;;;;;;894.57;405.87;;;5.20;99.90;;;;;;6185667;23;20021;-84
2022/11/26 03:21:20;;;;;;;1021.70;440.13;;;5.00;99.90;;;;;;6185953;23;20017;-84
2022/11/26 03:23:46;;;;;;;1086.00;426.43;;;5.00;99.90;;;;;;6185897;23;20083;-84
2022/11/26 03:26:11;;;;;;;953.67;409.00;;;5.20;99.90;;;;;;6185645;23;20013;-84
2022/11/26 03:28:37;;;;;;;709.22;359.70;;;5.20;99.90;;;;;;6185870;23;20021;-84
2022/11/26 03:31:03;;;;;;;902.77;401.87;;;5.10;99.90;;;;;;6158903;23;20349;-84
2022/11/26 03:33:28;;;;;;;854.93;391.80;;;5.10;99.90;;;;;;6185893;23;20013;-84
2022/11/26 03:35:54;;;;;;;853.53;396.63;;;5.10;99.90;;;;;;6185318;23;20534;-84
2022/11/26 03:38:20;;;;;;;745.72;352.52;;;5.10;99.90;;;;;;6185790;23;20013;-84
2022/11/26 03:40:53;;;;;;;928.47;392.27;;;5.10;99.90;;;;;;6185398;23;20041;-84
2022/11/26 03:43:19;;;;;;;937.80;403.17;;;5.20;99.90;;;;;;6185566;23;20017;-84
2022/11/26 03:45:44;;;;;;;839.73;382.03;;;5.20;99.90;;;;;;6185048;23;20313;-84
2022/11/26 03:48:10;;;;;;;933.93;397.60;;;5.20;99.90;;;;;;6185262;23;20024;-84
2022/11/26 03:50:36;;;;;;;873.50;390.87;;;5.30;99.90;;;;;;6185421;23;20012;-84
2022/11/26 03:53:01;;;;;;;876.27;390.17;;;5.30;99.90;;;;;;6185706;23;20529;-84
2022/11/26 03:55:27;;;;;;;1004.83;413.83;;;5.30;99.90;;;;;;6185371;23;20076;-84
2022/11/26 03:57:52;;;;;;;985.47;404.10;;;5.30;99.90;;;;;;6158679;23;20068;-84
2022/11/26 04:00:19;;;;;;;977.90;391.43;;;5.40;99.90;;;;;;6184912;23;20029;-84
2022/11/26 04:02:44;;;;;;;961.33;416.50;;;5.20;99.90;;;;;;6185374;23;20021;-84
2022/11/26 04:05:10;;;;;;;948.63;413.13;;;5.20;99.90;;;;;;6185438;23;20017;-84
2022/11/26 04:07:35;;;;;;;962.03;422.73;;;5.20;99.90;;;;;;6185265;23;20020;-84
2022/11/26 04:10:01;;;;;;;1040.33;412.23;;;5.20;99.90;;;;;;6185325;23;20325;-84
2022/11/26 04:12:27;;;;;;;1025.77;411.93;;;5.20;99.90;;;;;;6159000;23;20025;-84
2022/11/26 04:14:52;;;;;;;1049.63;414.70;;;5.30;99.90;;;;;;6184841;23;20019;-84
2022/11/26 04:17:18;;;;;;;1016.33;435.63;;;5.60;99.90;;;;;;6185138;23;20349;-85
2022/11/26 04:19:43;;;;;;;1030.47;434.57;;;5.20;99.90;;;;;;6159369;23;20020;-84
2022/11/26 04:22:09;;;;;;;1050.50;449.43;;;5.20;99.90;;;;;;6159043;23;20432;-84
2022/11/26 04:24:35;;;;;;;1059.93;449.33;;;5.20;99.90;;;;;;6185412;23;20025;-84
2022/11/26 04:27:01;;;;;;;1065.17;455.03;;;5.40;99.90;;;;;;6185347;23;20013;-84
2022/11/26 04:29:26;;;;;;;1120.90;436.27;;;5.90;99.90;;;;;;6185100;23;20053;-84
2022/11/26 04:31:52;;;;;;;1103.63;427.00;;;6.00;99.90;;;;;;6185096;23;20017;-84
2022/11/26 04:34:18;;;;;;;1052.10;453.23;;;5.20;99.90;;;;;;6185031;23;20452;-84
2022/11/26 04:36:43;;;;;;;1037.70;443.80;;;5.20;99.90;;;;;;6158993;23;20021;-84
2022/11/26 04:39:09;;;;;;;1037.67;447.93;;;5.20;99.90;;;;;;6185445;23;20017;-84
2022/11/26 04:41:35;;;;;;;1042.07;450.73;;;4.70;99.90;;;;;;6185514;23;20013;-84
2022/11/26 04:44:01;;;;;;;1032.17;447.73;;;5.20;99.90;;;;;;6185097;23;20317;-84
2022/11/26 04:46:26;;;;;;;1102.63;424.30;;;5.20;99.90;;;;;;6184939;23;20013;-84
2022/11/26 04:48:52;;;;;;;1118.83;431.13;;;5.20;99.90;;;;;;6158477;23;20064;-84
2022/11/26 04:51:17;;;;;;;1121.50;432.33;;;5.10;99.90;;;;;;6185230;23;20102;-84
2022/11/26 04:53:43;;;;;;;1117.57;431.90;;;5.10;99.90;;;;;;6158846;23;20044;-84
2022/11/26 04:56:09;;;;;;;1076.73;460.40;;;5.10;99.90;;;;;;6184918;23;20013;-84
2022/11/26 04:58:34;;;;;;;1109.73;428.37;;;5.60;99.90;;;;;;6185132;23;20025;-83
2022/11/26 05:01:00;;;;;;;1107.90;429.37;;;5.00;99.90;;;;;;6154819;23;20349;-84
2022/11/26 05:03:26;;;;;;;1059.97;449.47;;;5.00;99.90;;;;;;6157387;23;20021;-84
2022/11/26 05:05:51;;;;;;;1077.00;454.23;;;5.00;99.90;;;;;;6157418;23;20025;-84
2022/11/26 05:08:17;;;;;;;1112.67;419.23;;;5.80;99.90;;;;;;6157182;23;20024;-84
2022/11/26 05:10:43;;;;;;;1136.40;432.20;;;4.90;99.90;;;;;;6157069;23;20013;-84
2022/11/26 05:13:08;;;;;;;1138.33;432.33;;;5.60;99.90;;;;;;6157076;23;20053;-84
2022/11/26 05:15:34;;;;;;;1123.57;427.43;;;4.90;99.90;;;;;;6155420;23;20092;-84
2022/11/26 05:18:00;;;;;;;1113.57;417.93;;;4.80;99.90;;;;;;6157115;23;20014;-84
2022/11/26 05:20:25;;;;;;;1053.00;441.20;;;4.80;99.90;;;;;;6155576;23;20050;-84
2022/11/26 05:22:51;;;;;;;1119.97;429.93;;;4.80;99.90;;;;;;6156655;23;20021;-84
2022/11/26 05:25:16;;;;;;;1131.33;430.67;;;5.00;99.90;;;;;;6155385;23;20013;-84
2022/11/26 05:27:42;;;;;;;1059.53;446.13;;;4.80;99.90;;;;;;6156763;23;20014;-84
2022/11/26 05:30:08;;;;;;;1122.77;430.93;;;4.70;99.90;;;;;;6156759;23;20021;-83
2022/11/26 05:32:34;;;;;;;1085.47;451.87;;;4.70;99.90;;;;;;6157050;23;20085;-84
2022/11/26 05:34:59;;;;;;;1132.97;434.37;;;4.70;99.90;;;;;;6156747;23;20440;-84
2022/11/26 05:37:25;;;;;;;1085.63;454.30;;;4.90;99.90;;;;;;6156819;23;20093;-84
2022/11/26 05:39:51;;;;;;;1016.80;433.87;;;4.60;99.90;;;;;;6155076;23;20045;-84
2022/11/26 05:42:17;;;;;;;1032.87;433.40;;;4.50;99.90;;;;;;6156895;23;20022;-84
2022/11/26 05:44:42;;;;;;;1124.23;424.10;;;4.50;99.90;;;;;;6156782;23;20020;-84
2022/11/26 05:47:08;;;;;;;1135.43;427.73;;;4.50;99.90;;;;;;6156867;23;20013;-84
2022/11/26 05:49:34;;;;;;;1092.00;460.63;;;4.50;99.90;;;;;;6156935;23;20344;-84
2022/11/26 05:51:59;;;;;;;1084.60;450.40;;;4.80;99.90;;;;;;6156598;23;20028;-84
2022/11/26 05:54:25;;;;;;;1143.60;425.30;;;4.60;99.90;;;;;;6156646;23;20021;-84
2022/11/26 05:56:50;;;;;;;1091.30;458.50;;;4.60;99.90;;;;;;6156897;23;20024;-84
2022/11/26 05:59:16;;;;;;;1151.73;434.60;;;4.90;99.90;;;;;;6163836;23;20016;-84
2022/11/26 06:01:42;;;;;;;1102.43;458.17;;;5.00;99.90;;;;;;6186313;23;20470;-84
2022/11/26 06:04:07;;;;;;;1148.70;423.50;;;4.70;99.90;;;;;;6186663;23;20013;-85
2022/11/26 06:06:33;;;;;;;1150.87;429.60;;;4.70;99.90;;;;;;6186581;23;20013;-83
2022/11/26 06:08:59;;;;;;;1165.97;439.40;;;4.60;99.90;;;;;;6159650;23;20459;-84
2022/11/26 06:11:24;;;;;;;1117.47;467.97;;;4.60;99.90;;;;;;6185678;23;20017;-84
2022/11/26 06:13:50;;;;;;;1126.10;470.30;;;4.50;99.90;;;;;;6159868;23;20023;-84
2022/11/26 06:16:16;;;;;;;1159.50;434.70;;;4.80;99.90;;;;;;6159493;23;20352;-84
2022/11/26 06:18:41;;;;;;;1165.27;433.03;;;4.50;99.90;;;;;;6186151;23;20347;-84
2022/11/26 06:21:07;;;;;;;1129.93;465.23;;;4.50;99.90;;;;;;6159741;23;20084;-84
2022/11/26 06:23:33;;;;;;;1068.13;449.77;;;4.20;99.90;;;;;;6186502;23;20091;-85
2022/11/26 06:25:59;;;;;;;1144.70;470.97;;;4.10;99.90;;;;;;6159637;23;20385;-84
2022/11/26 06:28:25;;;;;;;1133.00;468.80;;;4.30;99.90;;;;;;6186436;23;20051;-84
2022/11/26 06:30:51;;;;;;;1166.97;432.27;;;4.30;99.90;;;;;;6185798;23;20009;-84
2022/11/26 06:33:17;;;;;;;1164.17;430.07;;;5.00;99.90;;;;;;6186183;23;20502;-84
2022/11/26 06:35:43;;;;;;;1165.70;434.63;;;4.20;99.90;;;;;;6159556;23;20013;-84
2022/11/26 06:38:09;;;;;;;1131.47;469.13;;;4.10;99.90;;;;;;6159662;23;20017;-84
2022/11/26 06:40:35;;;;;;;1132.90;469.50;;;4.10;99.90;;;;;;6186393;23;20063;-84
2022/11/26 06:43:00;;;;;;;1158.97;430.30;;;4.50;99.90;;;;;;6159559;23;20372;-84
2022/11/26 06:45:26;;;;;;;724.03;370.50;;;5.00;99.90;;;;;;6185629;23;20482;-83
2022/11/26 06:47:52;;;;;;;669.05;366.77;;;4.00;99.90;;;;;;6185990;23;20009;-84
2022/11/26 06:50:20;;;;;;;950.67;411.37;;;4.00;99.90;;;;;;6159240;23;20088;-84
2022/11/26 06:52:50;;;;;;;977.37;428.53;;;4.40;99.90;;;;;;6186212;23;20017;-85
2022/11/26 06:55:16;;;;;;;908.97;416.53;;;4.30;99.90;;;;;;6185904;23;20045;-84
2022/11/26 06:57:42;;;;;;;601.58;315.70;;;4.10;99.90;;;;;;6159387;23;20348;-84
2022/11/26 07:00:11;;;;;;;576.83;311.50;;;3.90;99.90;;;;;;6159436;23;20045;-83
2022/11/26 07:02:37;;;;;;;619.28;356.45;;;3.80;99.90;;;;;;6185987;23;20119;-84
2022/11/26 07:05:03;;;;;;;561.50;303.83;;;4.50;99.90;;;;;;6185657;23;20041;-84
2022/11/26 07:07:29;;;;;;;500.73;340.45;;;3.90;99.90;;;;;;6185962;23;20344;-84
2022/11/26 07:09:54;;;;;;;569.80;309.33;;;3.90;99.90;;;;;;6158885;23;20028;-84
2022/11/26 07:12:20;;;;;;;880.87;401.37;;;3.90;99.90;;;;;;6185540;23;20035;-86
2022/11/26 07:14:45;;;;;;;468.90;329.98;;;4.00;99.90;;;;;;6185541;23;20020;-85
2022/11/26 07:17:11;;;;;;;454.77;281.95;;;4.10;99.90;;;;;;6185730;23;20023;-85
2022/11/26 07:19:37;;;;;;;626.13;326.05;;;4.50;99.90;;;;;;6185031;23;20393;-85
2022/11/26 07:22:02;;;;;;;537.70;298.95;;;4.10;99.90;;;;;;6185894;23;20463;-85
2022/11/26 07:24:28;;;;;;;545.42;306.25;;;4.20;99.90;;;;;;6159277;23;20021;-84
2022/11/26 07:26:55;;;;;;;606.60;364.00;;;4.20;99.90;;;;;;6185753;23;20013;-84
2022/11/26 07:29:20;;;;;;;1070.97;449.93;;;4.70;99.90;;;;;;6159077;23;20017;-84
2022/11/26 07:31:46;;;;;;;1041.50;439.40;;;4.60;99.90;;;;;;6185264;23;20120;-83
2022/11/26 07:34:11;;;;;;;1082.00;455.43;;;4.10;99.90;;;;;;6185626;23;20009;-83
2022/11/26 07:36:41;;;;;;;908.80;390.93;;;4.10;99.90;;;;;;6159119;23;20021;-83
2022/11/26 07:39:09;;;;;;;1077.57;447.53;;;4.10;99.90;;;;;;6185866;23;20021;-84
2022/11/26 07:41:35;;;;;;;1108.20;460.20;;;4.20;99.90;;;;;;6185313;23;20080;-83
2022/11/26 07:44:00;;;;;;;1161.23;432.17;;;4.30;99.90;;;;;;6159533;23;20052;-84
2022/11/26 07:46:26;;;;;;;1162.23;432.27;;;4.90;99.90;;;;;;6185383;23;20009;-84
2022/11/26 07:48:53;;;;;;;1167.20;437.23;;;4.50;99.90;;;;;;6159086;23;20478;-83
2022/11/26 07:51:25;;;;;;;1177.23;441.87;;;4.60;99.90;;;;;;6184573;23;20101;-83
2022/11/26 07:53:51;;;;;;;1171.77;431.90;;;4.80;99.90;;;;;;6185517;23;20020;-83
2022/11/26 07:56:17;;;;;;;1168.87;429.30;;;5.50;99.90;;;;;;6185702;23;20059;-84
2022/11/26 07:58:43;;;;;;;1179.23;487.60;;;4.90;99.90;;;;;;6159042;23;20017;-83
2022/11/26 08:01:12;;;;;;;1187.00;494.07;;;5.00;99.90;;;;;;6184477;23;20025;-84
2022/11/26 08:03:42;;;;;;;1175.80;440.97;;;5.70;99.90;;;;;;6185435;23;20036;-85
2022/11/26 08:06:11;;;;;;;1189.27;499.43;;;5.20;99.90;;;;;;6159556;23;20336;-85
2022/11/26 08:08:37;;;;;;;965.63;418.43;;;5.20;99.90;;;;;;6185183;23;20021;-84
2022/11/26 08:11:10;;;;;;;1081.30;415.87;;;5.20;99.90;;;;;;6158637;23;20017;-86
2022/11/26 08:13:35;;;;;;;1025.70;438.37;;;5.20;99.90;;;;;;6158845;23;20065;-85
2022/11/26 08:16:01;;;;;;;1004.10;423.37;;;6.20;99.90;;;;;;6185218;23;20014;-86
2022/11/26 08:18:27;;;;;;;1090.60;419.60;;;5.30;99.90;;;;;;6184842;23;20406;-85
2022/11/26 08:20:56;;;;;;;1104.90;425.27;;;5.30;99.90;;;;;;6185117;23;20024;-85
2022/11/26 08:23:23;;;;;;;1038.47;436.63;;;5.40;99.90;;;;;;6185298;23;20080;-89
2022/11/26 08:25:49;;;;;;;1073.73;447.77;;;5.40;99.90;;;;;;6185264;23;20035;-88
2022/11/26 08:28:15;;;;;;;1053.67;439.03;;;6.10;99.90;;;;;;6184884;23;20024;-90
2022/11/26 08:30:40;;;;;;;1055.60;442.53;;;5.40;99.90;;;;;;6186057;23;20017;-90
2022/11/26 08:33:06;;;;;;;1063.17;444.10;;;4.90;99.90;;;;;;6185083;23;20021;-87
2022/11/26 08:35:34;;;;;;;1131.47;430.63;;;4.70;99.90;;;;;;6186440;23;20009;-86
2022/11/26 08:38:00;;;;;;;1135.27;429.83;;;6.00;99.90;;;;;;6187323;23;20024;-87
2022/11/26 08:40:26;;;;;;;1084.87;449.23;;;5.90;99.90;;;;;;6161196;23;20317;-87
2022/11/26 08:42:51;;;;;;;1088.70;453.20;;;6.60;99.90;;;;;;6160461;23;20407;-87
2022/11/26 08:45:17;;;;;;;1135.93;429.30;;;6.90;99.90;;;;;;6160197;23;20023;-87
2022/11/26 08:47:42;;;;;;;1136.97;434.40;;;5.50;99.90;;;;;;6160622;23;20048;-87
2022/11/26 08:50:09;;;;;;;1138.80;434.53;;;6.60;99.90;;;;;;6160229;23;20021;-89
2022/11/26 08:52:35;;;;;;;1083.10;452.50;;;5.70;99.90;;;;;;6160612;23;20063;-86
2022/11/26 08:55:00;;;;;;;1151.00;437.00;;;6.10;99.90;;;;;;6160707;23;20018;-86
2022/11/26 08:57:26;;;;;;;1098.40;461.60;;;6.70;99.90;;;;;;6160437;23;20017;-86
2022/11/26 08:59:53;;;;;;;1113.83;429.37;;;6.30;99.90;;;;;;6187363;23;20037;-86
2022/11/26 09:02:20;;;;;;;1042.60;443.07;;;5.90;99.90;;;;;;6160719;23;20464;-87
2022/11/26 09:04:46;;;;;;;1136.80;436.57;;;6.90;99.90;;;;;;6186659;23;20048;-85
2022/11/26 09:07:11;;;;;;;1146.00;435.90;;;5.60;99.90;;;;;;6135984;23;20345;-86
2022/11/26 09:09:37;;;;;;;1096.60;453.90;;;7.10;99.90;;;;;;6160290;23;20025;-86
2022/11/26 09:12:03;;;;;;;1162.63;445.40;;;6.10;99.90;;;;;;6160353;23;20396;-87
2022/11/26 09:14:35;;;;;;;1113.40;460.13;;;6.10;99.90;;;;;;6160350;23;20013;-86
2022/11/26 09:17:01;;;;;;;1110.03;461.30;;;6.40;99.90;;;;;;6159986;23;20081;-86
2022/11/26 09:19:27;;;;;;;1113.50;463.43;;;6.50;99.90;;;;;;6160526;23;20403;-85
2022/11/26 09:21:53;;;;;;;1130.07;471.13;;;6.30;99.90;;;;;;6186376;23;20024;-91
2022/11/26 09:24:20;;;;;;;1135.37;466.23;;;6.30;99.90;;;;;;6186481;23;20014;-85
2022/11/26 09:26:47;;;;;;;1166.07;481.43;;;7.40;99.90;;;;;;6186616;23;20028;-85
2022/11/26 09:29:14;;;;;;;1178.03;489.50;;;7.30;99.90;;;;;;6160793;23;20340;-86
2022/11/26 09:31:42;;;;;;;1192.67;453.63;;;5.20;99.90;;;;;;6186901;23;20039;-85
2022/11/26 09:34:09;;;;;;;1184.63;494.97;;;6.70;99.90;;;;;;6186861;23;20020;-85
2022/11/26 09:36:34;;;;;;;1195.20;457.03;;;7.30;99.90;;;;;;6160081;23;20028;-86
2022/11/26 09:39:00;;;;;;;1200.27;500.87;;;7.20;99.90;;;;;;6160312;23;20021;-87
2022/11/26 09:41:46;;;;;;;1206.90;459.27;;;7.50;99.90;;;;;;6159776;23;20411;-86
2022/11/26 09:44:30;;;;;;;1207.15;503.33;;;6.70;99.90;;;;;;6160049;23;20096;-87
2022/11/26 09:47:18;;;;;;;1197.87;463.13;;;6.70;99.90;;;;;;6186228;23;20021;-88
2022/11/26 09:50:15;;;;;;;1191.73;454.13;;;6.70;99.90;;;;;;6186949;23;20017;-85
2022/11/26 09:52:49;;;;;;;1165.05;487.48;;;6.80;99.90;;;;;;6186582;23;20099;-86
2022/11/26 09:55:28;;;;;;;1163.07;487.97;;;7.60;99.90;;;;;;6160215;23;20506;-86
2022/11/26 09:58:16;;;;;;;1182.40;457.57;;;6.90;99.90;;;;;;6159716;23;20344;-85
2022/11/26 10:00:46;;;;;;;1181.70;462.90;;;7.50;99.90;;;;;;6186084;23;20021;-86
2022/11/26 10:03:24;;;;;;;1175.43;456.43;;;6.40;99.90;;;;;;6186745;23;20395;-85
2022/11/26 10:06:02;;;;;;;1173.13;507.60;;;7.00;99.90;;;;;;6186537;23;20021;-84
2022/11/26 10:09:05;;;;;;;1188.07;507.87;;;7.00;99.90;;;;;;6186437;23;20027;-83
2022/11/26 10:11:44;;;;;;;1193.03;509.67;;;7.10;99.90;;;;;;6186301;23;20013;-84
2022/11/26 10:14:41;;;;;;;1190.37;509.53;;;7.20;99.90;;;;;;6186527;23;20314;-84
2022/11/26 10:17:26;;;;;;;1193.93;506.50;;;7.20;99.90;;;;;;6160291;23;20017;-84
2022/11/26 10:20:22;;;;;;;1194.23;510.17;;;7.20;99.90;;;;;;6186103;23;20052;-85
2022/11/26 10:22:53;;;;;;;1181.53;458.38;;;7.30;99.90;;;;;;6160003;23;20735;-85
2022/11/26 10:25:21;;;;;;;1194.60;467.70;;;7.30;99.90;;;;;;6186479;23;20399;-85
2022/11/26 10:27:48;;;;;;;1219.60;516.13;;;7.40;99.90;;;;;;6159627;23;20067;-85
2022/11/26 10:30:26;;;;;;;1197.80;467.50;;;7.40;99.90;;;;;;6186355;23;20020;-87
2022/11/26 10:32:53;;;;;;;1217.13;513.47;;;8.30;99.90;;;;;;6159348;23;20136;-88
2022/11/26 10:35:23;;;;;;;1224.97;513.53;;;8.30;99.90;;;;;;6159453;23;20021;-85
2022/11/26 10:37:49;;;;;;;1204.77;465.93;;;8.50;99.90;;;;;;6186639;23;20343;-84
2022/11/26 10:40:44;;;;;;;1210.20;508.90;;;8.20;99.90;;;;;;6186520;23;20013;-85
2022/11/26 10:43:19;;;;;;;1209.00;514.53;;;7.60;99.90;;;;;;6037528;23;20015;-88
2022/11/26 10:45:47;;;;;;;1195.40;473.52;;;8.30;99.90;;;;;;6037141;23;20019;-86
2022/11/26 10:48:25;;;;;;;1215.40;510.80;;;7.60;99.90;;;;;;6036976;23;20025;-86
2022/11/26 10:51:08;;;;;;;1207.20;512.00;;;8.40;99.90;;;;;;5990166;23;20059;-90
2022/11/26 10:53:54;;;;;;;1207.97;512.40;;;7.70;99.90;;;;;;6013594;23;20023;-87
2022/11/26 10:56:21;;;;;;;;;;;7.80;99.90;;;;;;6013829;23;20113;-85
2022/11/26 10:58:49;;;;;;;1195.50;470.73;;;7.80;99.90;;;;;;6013256;23;19928;-87
2022/11/26 11:01:15;;;;;;;894.47;411.33;;;7.90;99.90;;;;;;6037290;23;20019;-86
2022/11/26 11:03:53;;;;;;;795.38;390.63;;;8.50;99.90;;;;;;6036908;23;20034;-86
2022/11/26 11:06:19;;;;;;;955.93;467.07;;;8.00;99.90;;;;;;6036763;23;20343;-85
2022/11/26 11:08:50;;;;;;;1059.97;446.60;;;8.00;99.90;;;;;;6037263;23;20098;-85
2022/11/26 11:11:20;;;;;;;1024.90;438.13;;;7.20;99.90;;;;;;6013569;23;20079;-87
2022/11/26 11:13:47;;;;;;;1134.07;463.03;;;8.10;99.90;;;;;;6037258;23;20030;-84
2022/11/26 11:16:18;;;;;;;1206.10;482.93;;;8.80;99.90;;;;;;6013184;23;20015;-86
2022/11/26 11:19:01;;;;;;;1230.83;512.77;;;8.20;99.90;;;;;;6060851;23;20433;-88
2022/11/26 11:21:36;;;;;;;1240.27;517.83;;;9.20;99.90;;;;;;6159299;23;20017;-88
2022/11/26 11:24:16;;;;;;;1246.37;515.50;;;8.50;99.90;;;;;;6159232;23;20052;-85
2022/11/26 11:26:45;;;;;;;1233.07;488.13;;;9.10;99.90;;;;;;6158920;23;20341;-84
2022/11/26 11:29:32;;;;;;;1238.63;494.23;;;8.30;99.90;;;;;;6185759;23;20021;-86
2022/11/26 11:32:01;;;;;;;1238.83;490.70;;;8.20;99.90;;;;;;6185686;23;20386;-86
2022/11/26 11:34:33;;;;;;;1242.80;505.43;;;8.40;99.90;;;;;;6159159;23;20528;-85
2022/11/26 11:37:02;;;;;;;1250.63;492.57;;;9.00;99.90;;;;;;6185795;23;20013;-85
2022/11/26 11:39:33;;;;;;;1223.87;509.03;;;8.90;99.90;;;;;;6159538;23;20028;-85
2022/11/26 11:42:02;;;;;;;1226.70;503.40;;;9.00;99.90;;;;;;6185592;23;20091;-85
2022/11/26 11:44:38;;;;;;;1255.73;501.17;;;9.00;99.90;;;;;;6159044;23;20013;-83
2022/11/26 11:47:16;;;;;;;1239.37;511.57;;;8.60;99.90;;;;;;6184860;23;20013;-85
2022/11/26 11:50:12;;;;;;;1241.37;497.27;;;8.60;99.90;;;;;;6159328;23;20103;-85
2022/11/26 11:52:58;;;;;;;;;;;8.90;99.90;;;;;;6159590;23;20383;-84
2022/11/26 11:55:53;;;;;;;1227.20;492.37;;;8.60;99.90;;;;;;6185769;23;19919;-84
2022/11/26 11:59:00;;;;;;;1252.13;522.80;;;8.60;99.90;;;;;;6185195;23;20017;-85
2022/11/26 12:02:09;;;;;;;1244.88;526.67;;;8.70;99.90;;;;;;6184896;23;20084;-84
2022/11/26 12:05:02;;;;;;;1241.03;523.73;;;8.70;99.90;;;;;;6158865;23;20017;-84
2022/11/26 12:07:41;;;;;;;1210.33;520.53;;;9.10;99.90;;;;;;6185513;23;20013;-84
2022/11/26 12:10:15;;;;;;;1231.00;518.53;;;8.80;99.90;;;;;;6186763;23;20097;-85
2022/11/26 12:12:51;;;;;;;1233.63;515.07;;;8.80;99.90;;;;;;6187517;23;20021;-85
2022/11/26 12:15:31;;;;;;;1212.03;489.57;;;9.10;99.90;;;;;;6187094;23;20013;-83
2022/11/26 12:18:07;;;;;;;1229.80;498.43;;;8.80;99.90;;;;;;6187341;23;20395;-84
2022/11/26 12:20:40;;;;;;;1256.93;525.77;;;9.30;99.90;;;;;;6187605;23;20314;-84
2022/11/26 12:23:18;;;;;;;1247.47;503.20;;;9.60;99.90;;;;;;6161396;23;20080;-84
2022/11/26 12:25:49;;;;;;;20.20;8.30;;;8.90;99.90;;;;;;6160879;23;20016;-83